Airfield :







YOU CAN JOIN US ON...

 
LOGIN :

Register | Disclaimer

   EN    FR    IT 

 









Legend :    VFR   Marginal VFR   IFR   Intensive IFR   Very Intensive IFR
Visi :
Ceiling :
>= 8 km
>= 3000ft
5 to 8 km
1000 to 3000 ft
1500m to 5 km
500 to 1000 ft
800 to 1500m
200 to 500 ft
< 800m
< 200 ft
Symbols :   Thunderstorms  Fog  Heavy snow  Heavy precipitations  Wind > 20 kt






- Airport Elevation : 328 ft


KGFL - Floyd Bennett Memorial

CURRENT METAR :
  • 191553Z AUTO 17006KT 10SM CLR 26/18 A3004 RMK AO2 SLP170 T02560178

EXPIRED METARs :
  • 191453Z AUTO 14006KT 10SM CLR 24/18 A3005 RMK AO2 SLP174 T02390178 51007
  • 191353Z AUTO VRB05KT 10SM CLR 22/17 A3004 RMK AO2 SLP172 T02220172

TAF KGFL
Valid from the 19 at 12:00 until the 20 at 12:00 UTC


191124Z 1912/2012 00000KT 6SM BR FEW250
TEMPO 1912/1913 3SM BR
FM191300 VRB03KT P6SM FEW250
FM191700 20007KT P6SM SCT060 SCT250
FM200200 00000KT P6SM FEW080 FEW250
FM200900 00000KT 3SM BR FEW100 FEW250
KZBW FIR / North America



MET'MAP, your aeronautical weather chart ! - Copyright ORBIFLY December 2007 - Disclaimer

ORBIFLY MET'MAP TEAM :

Programming & Development : Alexandra Zaïnal
Original concept : Baudouin d'Aumeries
Technical & hardware support : Manuel Goepfert
Assistance : Marc-Olivier Méhu




SOURCES & CREDITS :

   NOAA